Jay, FL (32565)

10:51 AM CDT on May 27, 2015 (GMT -0500)
Jenkins Farm | | Change Station
CLOSE
Current Station
Personal Weather Station
Location: Jay, FL
Elevation: 262 ft
Nearby Weather Stations

Elev 262 ft 30.95 °N, 87.13 °W | Updated 4 minutes ago

Partly Cloudy
Partly Cloudy
85.5 °F
Feels Like 96 °F
N
0.0
Wind Variable Wind from ESE
Gusts 4.0 mph

Today
High -- | Low -- °F
--% Chance of Precip.
Yesterday
High -- | Low -- °F
Precip. -- in
5:47 AM 7:44 PM
Waxing Gibbous, 68% visible
Pressure 30.14 in
Visibility 10.0 miles
Clouds Scattered Clouds 2100 ft
Scattered Clouds 25000 ft
Heat Index 96 °F
Dew Point 76 °F
Humidity 74%
Rainfall 0.00 in
Snow Depth Not available.
UV 7 out of 12
Pollen 1.60 out of 12
Air Quality Not available.
Flu Activity Sporadic
METAR KNSE 271456Z 17007KT 10SM SCT021 SCT250 28/22 A3018 RMK AO2 SLP205 T02830222 53011 $

More Conditions Fewer Conditions

Pressure 30.14 in
Visibility 10.0 miles
Clouds Scattered Clouds 2100 ft
Scattered Clouds 25000 ft
Heat Index 96 °F
Dew Point 76 °F
Humidity 74%
Rainfall 0.00 in
Snow Depth Not available.
UV 7 out of 12
Pollen 1.60 out of 12
Air Quality Not available.
Flu Activity Sporadic
METAR KNSE 271456Z 17007KT 10SM SCT021 SCT250 28/22 A3018 RMK AO2 SLP205 T02830222 53011 $

More Conditions Fewer Conditions

10-Day Weather Forecast

Almanac

Astronomy

May. 27, 2015 Rise Set
Actual Time
Civil Twilight
Nautical Twilight
Astronomical Twilight
Moon
Length of Visible Light
Length of Day
Tomorrow will be .
, % of the Moon is Illuminated

Today's Extremes

State Highs State Lows

Community

WunderPhotos

Upload Photos

1,824,699 photos uploaded!

WunderBlogs® & News

Nearby

Air Quality

  Air Quality AQ Index Pollutant
Not available.

Snow Depth

Station Depth Elevation

Earthquake Activity

City Distance Mag. Time & Date
Minimum magnitude displayed is 2.5.

Coastal Water Temperatures

Place Temperature

Stations

Nearby Weather Stations

Station Location Temp. Windchill Dew Point Humidity Wind Precip. Elev Updated Type